createdAt,value
2023-02-05T00:01:50.933Z,-5.60
2023-02-05T00:04:18.882Z,-5.60
2023-02-05T00:06:46.223Z,-5.60
2023-02-05T00:09:13.571Z,-5.70
2023-02-05T00:11:42.299Z,-5.70
2023-02-05T00:14:10.900Z,-5.70
2023-02-05T00:16:38.013Z,-5.80
2023-02-05T00:19:05.311Z,-5.80
2023-02-05T00:21:32.317Z,-5.80
2023-02-05T00:23:59.866Z,-5.90
2023-02-05T00:26:26.877Z,-6.00
2023-02-05T00:28:54.425Z,-6.00
2023-02-05T00:31:22.766Z,-5.90
2023-02-05T00:33:51.578Z,-5.90
2023-02-05T00:36:20.988Z,-6.00
2023-02-05T00:38:48.647Z,-6.10
2023-02-05T00:41:16.087Z,-5.80
2023-02-05T00:43:43.860Z,-6.20
2023-02-05T00:46:12.228Z,-6.10
2023-02-05T00:48:41.056Z,-6.10
2023-02-05T00:51:08.159Z,-6.00
2023-02-05T00:53:35.394Z,-6.00
2023-02-05T00:56:02.551Z,-6.10
2023-02-05T00:58:30.064Z,-6.00
2023-02-05T01:00:57.762Z,-6.00
2023-02-05T01:03:25.033Z,-6.10
2023-02-05T01:05:52.039Z,-6.10
2023-02-05T01:08:19.602Z,-6.20
2023-02-05T01:10:48.786Z,-6.30
2023-02-05T01:13:18.062Z,-6.30
2023-02-05T01:15:46.231Z,-6.40
2023-02-05T01:18:13.781Z,-6.40
2023-02-05T01:20:42.369Z,-6.50
2023-02-05T01:23:10.695Z,-6.50
2023-02-05T01:25:38.027Z,-6.50
2023-02-05T01:28:06.760Z,-6.50
2023-02-05T01:30:34.609Z,-6.50
2023-02-05T01:33:02.623Z,-6.50
2023-02-05T01:35:29.858Z,-6.50
2023-02-05T01:37:57.101Z,-6.50
2023-02-05T01:40:24.643Z,-6.50
2023-02-05T01:42:51.889Z,-6.50
2023-02-05T01:45:25.200Z,-6.50
2023-02-05T01:47:53.681Z,-6.60
2023-02-05T01:50:39.737Z,-6.60
2023-02-05T01:53:11.245Z,-6.60
2023-02-05T01:55:43.925Z,-6.60
2023-02-05T01:58:11.467Z,-6.70
2023-02-05T02:00:38.431Z,-6.70
2023-02-05T02:03:06.177Z,-6.60
2023-02-05T02:05:33.347Z,-6.60
2023-02-05T02:08:00.698Z,-6.60
2023-02-05T02:10:27.852Z,-6.60
2023-02-05T02:12:55.910Z,-6.60
2023-02-05T02:15:25.643Z,-6.50
2023-02-05T02:18:17.251Z,-6.50
2023-02-05T02:20:44.607Z,-6.40
2023-02-05T02:23:21.222Z,-6.40
2023-02-05T02:26:16.660Z,-6.40
2023-02-05T02:29:04.092Z,-6.40
2023-02-05T02:31:41.863Z,-6.40
2023-02-05T02:34:17.694Z,-6.40
2023-02-05T02:36:53.865Z,-6.50
2023-02-05T02:39:27.008Z,-6.50
2023-02-05T02:42:08.551Z,-6.60
2023-02-05T02:45:02.986Z,-6.60
2023-02-05T02:47:36.540Z,-6.60
2023-02-05T02:50:24.265Z,-6.60
2023-02-05T02:52:54.202Z,-6.50
2023-02-05T02:55:23.626Z,-6.60
2023-02-05T02:57:52.695Z,-6.60
2023-02-05T03:00:25.217Z,-6.60
2023-02-05T03:03:01.061Z,-6.60
2023-02-05T03:05:29.789Z,-6.60
2023-02-05T03:08:01.437Z,-6.50
2023-02-05T03:10:55.334Z,-6.40
2023-02-05T03:13:22.447Z,-6.30
2023-02-05T03:15:49.857Z,-6.20
2023-02-05T03:18:18.489Z,-6.10
2023-02-05T03:20:53.295Z,-6.10
2023-02-05T03:23:20.527Z,-6.00
2023-02-05T03:25:48.465Z,-6.00
2023-02-05T03:28:16.044Z,-5.90
2023-02-05T03:31:00.323Z,-5.90
2023-02-05T03:33:53.774Z,-5.90
2023-02-05T03:36:35.071Z,-5.90
2023-02-05T03:39:13.800Z,-5.90
2023-02-05T03:41:56.527Z,-5.90
2023-02-05T03:44:55.309Z,-5.90
2023-02-05T03:48:17.789Z,-5.90
2023-02-05T03:51:03.721Z,-5.90
2023-02-05T03:53:41.800Z,-5.90
2023-02-05T03:56:31.541Z,-6.00
2023-02-05T03:58:59.729Z,-6.00
2023-02-05T04:01:26.980Z,-6.00
2023-02-05T04:03:54.248Z,-5.90
2023-02-05T04:06:21.342Z,-5.90
2023-02-05T04:08:48.909Z,-5.80
2023-02-05T04:11:16.020Z,-5.80
2023-02-05T04:13:43.473Z,-5.80
2023-02-05T04:16:10.486Z,-5.80
2023-02-05T04:18:38.066Z,-5.70
2023-02-05T04:21:05.475Z,-5.70
2023-02-05T04:23:32.796Z,-5.70
2023-02-05T04:25:59.727Z,-5.60
2023-02-05T04:28:27.219Z,-5.60
2023-02-05T04:30:54.406Z,-5.50
2023-02-05T04:33:21.778Z,-5.50
2023-02-05T04:35:48.704Z,-5.50
2023-02-05T04:38:15.930Z,-5.50
2023-02-05T04:40:42.849Z,-5.50
2023-02-05T04:43:10.076Z,-5.40
2023-02-05T04:45:37.100Z,-5.40
2023-02-05T04:48:06.554Z,-5.40
2023-02-05T04:50:33.617Z,-5.30
2023-02-05T04:53:04.162Z,-5.30
2023-02-05T04:55:32.480Z,-5.30
2023-02-05T04:57:59.995Z,-5.20
2023-02-05T05:00:27.364Z,-5.20
2023-02-05T05:02:54.821Z,-5.20
2023-02-05T05:05:21.810Z,-5.20
2023-02-05T05:07:49.300Z,-5.10
2023-02-05T05:10:16.321Z,-5.10
2023-02-05T05:12:43.527Z,-5.10
2023-02-05T05:15:12.831Z,-5.10
2023-02-05T05:17:40.156Z,-5.10
2023-02-05T05:20:07.380Z,-5.10
2023-02-05T05:22:34.563Z,-5.10
2023-02-05T05:25:01.691Z,-5.10
2023-02-05T05:27:29.019Z,-5.10
2023-02-05T05:29:55.984Z,-5.00
2023-02-05T05:32:23.259Z,-5.00
2023-02-05T05:34:50.327Z,-4.90
2023-02-05T05:37:17.564Z,-4.90
2023-02-05T05:40:03.064Z,-4.90
2023-02-05T05:42:48.956Z,-4.90
2023-02-05T05:45:15.949Z,-4.80
2023-02-05T05:47:43.193Z,-4.80
2023-02-05T05:50:10.220Z,-4.70
2023-02-05T05:52:37.475Z,-4.70
2023-02-05T05:55:04.948Z,-4.70
2023-02-05T05:57:32.690Z,-4.70
2023-02-05T05:59:59.706Z,-4.70
2023-02-05T06:02:26.943Z,-4.60
2023-02-05T06:04:54.123Z,-4.60
2023-02-05T06:07:21.367Z,-4.60
2023-02-05T06:09:48.293Z,-4.50
2023-02-05T06:12:15.583Z,-4.50
2023-02-05T06:14:42.572Z,-4.40
2023-02-05T06:17:09.919Z,-4.40
2023-02-05T06:19:36.858Z,-4.40
2023-02-05T06:22:04.488Z,-4.40
2023-02-05T06:24:31.464Z,-4.40
2023-02-05T06:26:58.993Z,-4.40
2023-02-05T06:29:26.012Z,-4.40
2023-02-05T06:31:53.479Z,-4.30
2023-02-05T06:34:20.577Z,-4.30
2023-02-05T06:36:48.095Z,-4.20
2023-02-05T06:39:15.059Z,-4.30
2023-02-05T06:41:42.357Z,-4.20
2023-02-05T06:44:10.090Z,-4.20
2023-02-05T06:46:37.397Z,-4.20
2023-02-05T06:49:05.620Z,-4.20
2023-02-05T06:51:32.872Z,-4.20
2023-02-05T06:54:02.958Z,-4.20
2023-02-05T06:56:30.617Z,-4.10
2023-02-05T06:58:57.606Z,-4.20
2023-02-05T07:01:24.964Z,-4.10
2023-02-05T07:03:56.029Z,-4.10
2023-02-05T07:06:24.034Z,-4.10
2023-02-05T07:08:53.526Z,-4.10
2023-02-05T07:11:21.793Z,-4.00
2023-02-05T07:13:48.847Z,-4.00
2023-02-05T07:16:16.137Z,-4.00
2023-02-05T07:18:43.347Z,-4.00
2023-02-05T07:21:15.935Z,-3.90
2023-02-05T07:23:43.298Z,-3.90
2023-02-05T07:26:13.651Z,-3.80
2023-02-05T07:28:41.604Z,-3.70
2023-02-05T07:31:11.417Z,-3.70
2023-02-05T07:33:38.616Z,-3.50
2023-02-05T07:36:08.492Z,-3.50
2023-02-05T07:38:36.672Z,-3.40
2023-02-05T07:41:08.409Z,-3.30
2023-02-05T07:43:35.605Z,-3.20
2023-02-05T07:46:05.792Z,-3.10
2023-02-05T07:48:33.244Z,-3.00
2023-02-05T07:51:01.240Z,-2.90
2023-02-05T07:53:28.247Z,-2.90
2023-02-05T07:55:55.941Z,-2.80
2023-02-05T07:58:22.986Z,-2.70
2023-02-05T08:00:50.260Z,-2.60
2023-02-05T08:03:17.367Z,-2.50
2023-02-05T08:05:44.916Z,-2.40
2023-02-05T08:08:13.154Z,-2.40
2023-02-05T08:10:40.500Z,-2.30
2023-02-05T08:13:07.668Z,-2.20
2023-02-05T08:15:35.177Z,-2.10
2023-02-05T08:18:02.458Z,-2.00
2023-02-05T08:20:29.873Z,-2.00
2023-02-05T08:22:56.866Z,-1.90
2023-02-05T08:25:24.480Z,-1.80
2023-02-05T08:27:51.404Z,-1.90
2023-02-05T08:30:21.679Z,-1.90
2023-02-05T08:32:50.066Z,-1.90
2023-02-05T08:35:18.055Z,-1.90
2023-02-05T08:37:45.204Z,-1.90
2023-02-05T08:40:13.044Z,-1.80
2023-02-05T08:42:40.433Z,-1.80
2023-02-05T08:45:09.055Z,-1.70
2023-02-05T08:47:36.570Z,-1.60
2023-02-05T08:50:07.389Z,-1.50
2023-02-05T08:52:34.671Z,-1.40
2023-02-05T08:55:01.942Z,-1.30
2023-02-05T08:57:30.460Z,-1.30
2023-02-05T08:59:58.315Z,-1.30
2023-02-05T09:02:28.443Z,-1.30
2023-02-05T09:05:08.004Z,-1.30
2023-02-05T09:07:36.275Z,-1.30
2023-02-05T09:10:03.898Z,-1.30
2023-02-05T09:12:30.853Z,-1.20
2023-02-05T09:14:58.273Z,-1.40
2023-02-05T09:17:25.359Z,-1.30
2023-02-05T09:19:52.591Z,-1.30
2023-02-05T09:22:20.901Z,-1.20
2023-02-05T09:24:48.680Z,-1.20
2023-02-05T09:27:15.678Z,-1.20
2023-02-05T09:29:45.154Z,-1.10
2023-02-05T09:32:12.106Z,-1.00
2023-02-05T09:34:39.416Z,-0.90
2023-02-05T09:37:06.419Z,-0.80
2023-02-05T09:42:23.869Z,-0.50
2023-02-05T09:45:10.202Z,-0.10
2023-02-05T09:47:55.626Z,0.00
2023-02-05T09:50:29.751Z,1.10
2023-02-05T09:53:02.901Z,4.40
2023-02-05T09:55:34.116Z,5.30
2023-02-05T09:58:07.177Z,4.90
2023-02-05T10:00:44.882Z,4.30
2023-02-05T10:03:42.546Z,3.80
2023-02-05T10:06:28.817Z,3.50
2023-02-05T10:09:39.610Z,3.30
2023-02-05T10:12:24.939Z,3.30
2023-02-05T10:15:13.768Z,3.20
2023-02-05T10:18:14.269Z,3.10
2023-02-05T10:20:50.440Z,3.20
2023-02-05T10:23:32.108Z,3.30
2023-02-05T10:26:01.835Z,3.30
2023-02-05T10:28:44.199Z,3.20
2023-02-05T10:31:23.938Z,3.10
2023-02-05T10:33:56.124Z,3.10
2023-02-05T10:36:27.502Z,2.70
2023-02-05T10:38:57.130Z,2.20
2023-02-05T10:41:39.514Z,1.80
2023-02-05T10:44:16.937Z,1.30
2023-02-05T10:46:51.647Z,0.20
2023-02-05T10:49:48.289Z,0.20
2023-02-05T10:52:16.870Z,-0.20
2023-02-05T10:54:45.419Z,-0.50
2023-02-05T10:57:15.015Z,-0.70
2023-02-05T10:59:51.320Z,-0.80
2023-02-05T11:02:18.330Z,-0.90
2023-02-05T11:04:52.690Z,-1.00
2023-02-05T11:07:25.426Z,-1.10
2023-02-05T11:09:52.810Z,-1.20
2023-02-05T11:12:32.780Z,-1.30
2023-02-05T11:15:02.847Z,-1.40
2023-02-05T11:17:38.112Z,-1.40
2023-02-05T11:20:17.503Z,-1.40
2023-02-05T11:22:46.252Z,-1.50
2023-02-05T11:25:29.803Z,-1.50
2023-02-05T11:27:59.129Z,-1.50
2023-02-05T11:30:52.650Z,-1.50
2023-02-05T11:33:22.934Z,-1.50
2023-02-05T11:36:05.966Z,-1.50
2023-02-05T11:38:50.473Z,-1.60
2023-02-05T11:41:51.998Z,-1.70
2023-02-05T11:44:30.438Z,-1.70
2023-02-05T11:47:00.648Z,-1.90
2023-02-05T11:49:40.283Z,-1.90
2023-02-05T11:52:15.312Z,-2.00
2023-02-05T11:54:47.593Z,-2.10
2023-02-05T11:57:17.825Z,-2.10
2023-02-05T12:00:01.712Z,-2.10
2023-02-05T12:02:35.624Z,-2.10
2023-02-05T12:05:17.420Z,-2.20
2023-02-05T12:08:12.842Z,-2.20
2023-02-05T12:11:01.099Z,-2.10
2023-02-05T12:13:52.969Z,-2.20
2023-02-05T12:16:51.648Z,-2.20
2023-02-05T12:19:24.312Z,-2.20
2023-02-05T12:21:51.460Z,-2.20
2023-02-05T12:24:30.886Z,-2.30
2023-02-05T12:27:22.567Z,-2.30
2023-02-05T12:30:17.955Z,-2.30
2023-02-05T12:33:12.570Z,-2.20
2023-02-05T12:36:10.991Z,-2.30
2023-02-05T12:38:52.699Z,-2.20
2023-02-05T12:41:36.606Z,-2.20
2023-02-05T12:44:18.060Z,-2.20
2023-02-05T12:46:53.860Z,-2.30
2023-02-05T12:49:27.547Z,-2.30
2023-02-05T12:52:13.629Z,-2.30
2023-02-05T12:54:51.147Z,-2.30
2023-02-05T12:57:26.137Z,-2.30
2023-02-05T13:00:03.349Z,-2.30
2023-02-05T13:02:52.554Z,-2.30
2023-02-05T13:05:22.210Z,-2.30
2023-02-05T13:08:28.112Z,-2.30
2023-02-05T13:11:25.366Z,-2.20
2023-02-05T13:14:13.774Z,-2.20
2023-02-05T13:16:47.611Z,-2.20
2023-02-05T13:19:25.332Z,-2.10
2023-02-05T13:22:14.456Z,-2.20
2023-02-05T13:25:10.622Z,-2.20
2023-02-05T13:28:07.899Z,-2.30
2023-02-05T13:30:40.383Z,-2.30
2023-02-05T13:33:08.256Z,-2.30
2023-02-05T13:35:57.591Z,-2.30
2023-02-05T13:38:53.724Z,-2.40
2023-02-05T13:41:32.973Z,-2.30
2023-02-05T13:44:10.508Z,-2.40
2023-02-05T13:46:59.111Z,-2.30
2023-02-05T13:49:37.980Z,-2.30
2023-02-05T13:52:29.939Z,-2.40
2023-02-05T13:55:11.940Z,-2.40
2023-02-05T13:57:59.099Z,-2.40
2023-02-05T14:00:27.815Z,-2.50
2023-02-05T14:02:57.712Z,-2.50
2023-02-05T14:05:37.458Z,-2.50
2023-02-05T14:08:06.385Z,-2.50
2023-02-05T14:10:41.077Z,-2.60
2023-02-05T14:13:34.228Z,-2.60
2023-02-05T14:16:26.143Z,-2.60
2023-02-05T14:19:02.223Z,-2.60
2023-02-05T14:21:35.003Z,-2.70
2023-02-05T14:24:23.533Z,-2.60
2023-02-05T14:26:59.642Z,-2.70
2023-02-05T14:29:47.134Z,-2.70
2023-02-05T14:32:26.426Z,-2.70
2023-02-05T14:35:05.305Z,-2.80
2023-02-05T14:37:41.172Z,-3.00
2023-02-05T14:40:35.863Z,-3.00
2023-02-05T14:43:27.583Z,-3.10
2023-02-05T14:45:55.182Z,-3.10
2023-02-05T14:48:30.757Z,-3.20
2023-02-05T14:51:18.933Z,-3.20
2023-02-05T14:54:05.767Z,-3.20
2023-02-05T14:56:39.710Z,-3.30
2023-02-05T14:59:38.058Z,-3.40
2023-02-05T15:02:44.060Z,-3.50
2023-02-05T15:05:18.698Z,-3.50
2023-02-05T15:07:48.548Z,-3.60
2023-02-05T15:10:21.642Z,-3.70
2023-02-05T15:13:10.169Z,-3.70
2023-02-05T15:15:38.030Z,-3.80
2023-02-05T15:18:06.660Z,-3.90
2023-02-05T15:20:38.046Z,-4.00
2023-02-05T15:23:17.969Z,-4.00
2023-02-05T15:25:54.328Z,-4.10
2023-02-05T15:28:52.188Z,-4.10
2023-02-05T15:31:47.197Z,-4.20
2023-02-05T15:34:31.482Z,-4.20
2023-02-05T15:37:01.845Z,-4.30
2023-02-05T15:39:51.122Z,-4.30
2023-02-05T15:42:33.077Z,-4.30
2023-02-05T15:45:26.732Z,-4.70
2023-02-05T15:48:13.957Z,-4.30
2023-02-05T15:50:50.064Z,-4.40
2023-02-05T15:53:35.175Z,-4.40
2023-02-05T15:56:16.730Z,-4.40
2023-02-05T15:58:52.637Z,-4.50
2023-02-05T16:01:50.045Z,-4.50
2023-02-05T16:04:34.740Z,-4.60
2023-02-05T16:07:02.747Z,-4.80
2023-02-05T16:09:31.324Z,-4.80
2023-02-05T16:12:12.082Z,-4.90
2023-02-05T16:14:39.095Z,-5.00
2023-02-05T16:17:21.507Z,-5.00
2023-02-05T16:20:04.787Z,-5.10
2023-02-05T16:22:48.370Z,-5.10
2023-02-05T16:25:30.180Z,-5.10
2023-02-05T16:27:59.382Z,-5.20
2023-02-05T16:30:42.772Z,-5.30
2023-02-05T16:33:30.708Z,-5.30
2023-02-05T16:36:00.042Z,-5.40
2023-02-05T16:38:28.369Z,-5.40
2023-02-05T16:40:58.659Z,-5.40
2023-02-05T16:43:36.797Z,-5.40
2023-02-05T16:46:06.615Z,-5.50
2023-02-05T16:48:46.971Z,-5.50
2023-02-05T16:51:32.673Z,-5.50
2023-02-05T16:54:01.326Z,-5.50
2023-02-05T16:56:32.466Z,-5.50
2023-02-05T16:59:03.024Z,-5.60
2023-02-05T17:01:40.252Z,-5.60
2023-02-05T17:04:08.011Z,-5.60
2023-02-05T17:06:37.520Z,-5.60
2023-02-05T17:09:05.833Z,-5.60
2023-02-05T17:11:42.984Z,-5.60
2023-02-05T17:14:31.453Z,-5.60
2023-02-05T17:17:02.322Z,-5.70
2023-02-05T17:19:33.997Z,-5.70
2023-02-05T17:22:16.253Z,-5.70
2023-02-05T17:24:46.480Z,-5.80
2023-02-05T17:27:23.053Z,-5.80
2023-02-05T17:29:50.951Z,-5.90
2023-02-05T17:32:19.830Z,-6.00
2023-02-05T17:34:47.963Z,-6.00
2023-02-05T17:37:15.742Z,-6.10
2023-02-05T17:39:43.224Z,-6.10
2023-02-05T17:42:25.562Z,-6.10
2023-02-05T17:44:53.811Z,-6.20
2023-02-05T17:47:20.780Z,-6.20
2023-02-05T17:49:48.448Z,-6.20
2023-02-05T17:52:15.825Z,-6.30
2023-02-05T17:54:44.441Z,-6.30
2023-02-05T17:57:17.935Z,-6.40
2023-02-05T17:59:45.790Z,-6.40
2023-02-05T18:02:13.839Z,-6.50
2023-02-05T18:04:41.867Z,-6.50
2023-02-05T18:07:32.955Z,-6.50
2023-02-05T18:10:00.383Z,-6.50
2023-02-05T18:12:27.839Z,-6.60
2023-02-05T18:14:55.372Z,-6.70
2023-02-05T18:17:22.346Z,-6.80
2023-02-05T18:19:49.885Z,-6.90
2023-02-05T18:22:16.927Z,-6.90
2023-02-05T18:24:44.294Z,-7.00
2023-02-05T18:27:14.223Z,-7.00
2023-02-05T18:29:43.606Z,-7.10
2023-02-05T18:32:10.998Z,-7.10
2023-02-05T18:34:40.031Z,-7.20
2023-02-05T18:37:07.111Z,-7.30
2023-02-05T18:39:34.454Z,-7.30
2023-02-05T18:42:01.578Z,-7.30
2023-02-05T18:44:29.093Z,-7.30
2023-02-05T18:46:56.069Z,-7.20
2023-02-05T18:49:23.679Z,-7.20
2023-02-05T18:51:50.790Z,-7.10
2023-02-05T18:54:18.042Z,-7.20
2023-02-05T18:56:44.976Z,-6.90
2023-02-05T18:59:15.477Z,-7.00
2023-02-05T19:01:43.160Z,-6.80
2023-02-05T19:04:13.407Z,-6.70
2023-02-05T19:06:42.115Z,-6.60
2023-02-05T19:09:09.899Z,-6.60
2023-02-05T19:11:41.032Z,-6.60
2023-02-05T19:14:11.687Z,-6.60
2023-02-05T19:16:39.724Z,-6.60
2023-02-05T19:19:07.494Z,-6.60
2023-02-05T19:21:36.121Z,-6.60
2023-02-05T19:24:09.793Z,-6.60
2023-02-05T19:26:38.913Z,-6.60
2023-02-05T19:29:08.956Z,-6.60
2023-02-05T19:31:37.147Z,-6.60
2023-02-05T19:34:05.095Z,-6.60
2023-02-05T19:36:32.208Z,-6.70
2023-02-05T19:39:01.050Z,-6.60
2023-02-05T19:41:28.980Z,-6.60
2023-02-05T19:43:58.801Z,-6.60
2023-02-05T19:46:31.570Z,-6.50
2023-02-05T19:49:04.804Z,-6.50
2023-02-05T19:51:32.542Z,-6.40
2023-02-05T19:54:03.042Z,-6.30
2023-02-05T19:56:32.452Z,-6.20
2023-02-05T19:58:59.686Z,-6.10
2023-02-05T20:01:29.641Z,-6.00
2023-02-05T20:04:06.611Z,-6.00
2023-02-05T20:06:34.209Z,-5.90
2023-02-05T20:09:02.397Z,-5.80
2023-02-05T20:11:32.742Z,-5.70
2023-02-05T20:14:01.562Z,-5.60
2023-02-05T20:16:28.997Z,-5.50
2023-02-05T20:18:58.480Z,-5.40
2023-02-05T20:21:26.681Z,-5.40
2023-02-05T20:23:54.636Z,-5.30
2023-02-05T20:26:22.711Z,-5.20
2023-02-05T20:29:12.921Z,-5.10
2023-02-05T20:31:49.027Z,-5.00
2023-02-05T20:34:19.443Z,-5.00
2023-02-05T20:36:48.890Z,-4.90
2023-02-05T20:39:18.047Z,-4.90
2023-02-05T20:41:50.240Z,-4.80
2023-02-05T20:44:18.345Z,-4.80
2023-02-05T20:46:45.756Z,-4.80
2023-02-05T20:49:13.597Z,-4.90
2023-02-05T20:51:41.018Z,-4.90
2023-02-05T20:54:09.521Z,-4.80
2023-02-05T20:56:36.681Z,-4.90
2023-02-05T20:59:07.186Z,-4.90
2023-02-05T21:01:36.678Z,-4.90
2023-02-05T21:04:06.624Z,-4.90
2023-02-05T21:06:37.161Z,-5.00
2023-02-05T21:09:05.480Z,-5.00
2023-02-05T21:11:32.612Z,-5.00
2023-02-05T21:14:00.074Z,-5.10
2023-02-05T21:16:28.472Z,-5.10
2023-02-05T21:18:56.330Z,-5.10
2023-02-05T21:21:28.648Z,-5.10
2023-02-05T21:23:57.357Z,-5.10
2023-02-05T21:26:27.013Z,-5.10
2023-02-05T21:29:00.967Z,-5.10
2023-02-05T21:31:36.145Z,-5.00
2023-02-05T21:34:05.677Z,-5.00
2023-02-05T21:36:33.879Z,-5.00
2023-02-05T21:39:01.425Z,-5.00
2023-02-05T21:41:28.537Z,-5.00
2023-02-05T21:43:59.386Z,-5.00
2023-02-05T21:46:29.375Z,-5.10
2023-02-05T21:48:59.742Z,-5.00
2023-02-05T21:51:31.872Z,-5.00
2023-02-05T21:54:00.652Z,-5.00
2023-02-05T21:56:45.543Z,-5.00
2023-02-05T21:59:13.068Z,-5.00
2023-02-05T22:01:41.636Z,-5.00
2023-02-05T22:04:13.376Z,-5.00
2023-02-05T22:06:41.076Z,-5.00
2023-02-05T22:09:11.104Z,-5.00
2023-02-05T22:11:39.406Z,-5.00
2023-02-05T22:14:07.285Z,-5.00
2023-02-05T22:16:35.845Z,-5.00
2023-02-05T22:19:04.968Z,-5.00
2023-02-05T22:21:34.784Z,-5.00
2023-02-05T22:24:02.947Z,-5.00
2023-02-05T22:26:36.472Z,-5.10
2023-02-05T22:29:06.383Z,-5.00
2023-02-05T22:31:33.771Z,-5.00
2023-02-05T22:34:01.311Z,-5.10
2023-02-05T22:36:30.296Z,-5.10
2023-02-05T22:38:58.526Z,-5.20
2023-02-05T22:41:32.817Z,-5.30
2023-02-05T22:44:02.028Z,-5.40
2023-02-05T22:46:31.353Z,-5.50
2023-02-05T22:49:02.327Z,-5.40
2023-02-05T22:51:38.920Z,-5.50
2023-02-05T22:54:07.730Z,-5.60
2023-02-05T22:56:34.793Z,-5.60
2023-02-05T22:59:03.395Z,-5.70
2023-02-05T23:01:33.168Z,-5.70
2023-02-05T23:04:02.498Z,-5.70
2023-02-05T23:06:32.306Z,-5.60
2023-02-05T23:09:09.956Z,-5.60
2023-02-05T23:11:37.156Z,-5.60
2023-02-05T23:14:06.361Z,-5.50
2023-02-05T23:16:36.884Z,-5.50
2023-02-05T23:19:09.693Z,-5.40
2023-02-05T23:21:38.579Z,-5.40
2023-02-05T23:24:06.957Z,-5.50
2023-02-05T23:26:38.606Z,-5.40
2023-02-05T23:29:07.031Z,-5.40
2023-02-05T23:31:34.316Z,-5.30
2023-02-05T23:34:02.038Z,-5.30
2023-02-05T23:36:29.288Z,-5.30
2023-02-05T23:38:56.543Z,-5.30
2023-02-05T23:41:36.035Z,-5.30
2023-02-05T23:44:12.870Z,-5.30
2023-02-05T23:46:40.896Z,-5.40
2023-02-05T23:49:09.604Z,-5.40
2023-02-05T23:54:05.447Z,-5.30
2023-02-05T23:56:32.520Z,-5.30
2023-02-05T23:59:00.238Z,-5.30
